createdAt,value
2023-05-12T00:00:25.905Z,97968.60
2023-05-12T00:03:10.430Z,97966.73
2023-05-12T00:05:36.776Z,97970.41
2023-05-12T00:08:03.074Z,97971.16
2023-05-12T00:10:29.581Z,97974.73
2023-05-12T00:12:55.955Z,97976.41
2023-05-12T00:15:22.289Z,97973.06
2023-05-12T00:17:48.755Z,97980.24
2023-05-12T00:20:15.067Z,97972.48
2023-05-12T00:22:41.367Z,97973.55
2023-05-12T00:25:07.874Z,97973.47
2023-05-12T00:27:34.174Z,97974.23
2023-05-12T00:30:00.501Z,97975.06
2023-05-12T00:32:26.842Z,97974.94
2023-05-12T00:34:53.124Z,97976.89
2023-05-12T00:37:19.548Z,97973.42
2023-05-12T00:39:45.852Z,97975.84
2023-05-12T00:42:12.260Z,97976.36
2023-05-12T00:44:38.568Z,97978.77
2023-05-12T00:47:05.029Z,97981.11
2023-05-12T00:49:31.850Z,97981.42
2023-05-12T00:51:58.598Z,97982.05
2023-05-12T00:54:26.043Z,97980.98
2023-05-12T00:56:52.440Z,97978.89
2023-05-12T00:59:20.347Z,97978.77
2023-05-12T01:01:48.552Z,97980.16
2023-05-12T01:04:15.796Z,97979.20
2023-05-12T01:06:42.376Z,97984.11
2023-05-12T01:09:09.240Z,97983.33
2023-05-12T01:11:36.923Z,97983.37
2023-05-12T01:14:04.273Z,97983.63
2023-05-12T01:16:42.602Z,97983.83
2023-05-12T01:19:14.246Z,97980.98
2023-05-12T01:21:40.675Z,97981.85
2023-05-12T01:24:07.943Z,97981.36
2023-05-12T01:26:34.921Z,97979.60
2023-05-12T01:29:01.899Z,97983.23
2023-05-12T01:31:28.304Z,97984.67
2023-05-12T01:33:54.637Z,97986.41
2023-05-12T01:36:21.102Z,97989.15
2023-05-12T01:38:47.388Z,97987.34
2023-05-12T01:41:13.903Z,97987.11
2023-05-12T01:43:40.713Z,97988.65
2023-05-12T01:46:07.086Z,97993.60
2023-05-12T01:48:34.074Z,97985.45
2023-05-12T01:51:00.639Z,97991.44
2023-05-12T01:53:27.036Z,97989.73
2023-05-12T01:55:53.503Z,97988.70
2023-05-12T01:58:20.333Z,97991.36
2023-05-12T02:00:47.110Z,97989.45
2023-05-12T02:03:15.342Z,97986.48
2023-05-12T02:05:41.787Z,97990.23
2023-05-12T02:08:08.044Z,97986.53
2023-05-12T02:10:34.881Z,97988.80
2023-05-12T02:13:01.214Z,97986.73
2023-05-12T02:15:27.646Z,97987.67
2023-05-12T02:17:55.189Z,97984.27
2023-05-12T02:20:22.250Z,97987.29
2023-05-12T02:22:48.741Z,97986.35
2023-05-12T02:25:15.095Z,97981.98
2023-05-12T02:27:41.535Z,97983.19
2023-05-12T02:30:08.121Z,97985.98
2023-05-12T02:32:34.577Z,97986.85
2023-05-12T02:35:01.114Z,97987.98
2023-05-12T02:37:27.658Z,97987.55
2023-05-12T02:39:53.924Z,97990.35
2023-05-12T02:42:20.202Z,97989.22
2023-05-12T02:44:46.809Z,97989.61
2023-05-12T02:47:13.115Z,97989.68
2023-05-12T02:49:39.401Z,97987.79
2023-05-12T02:52:06.182Z,97989.02
2023-05-12T02:54:32.454Z,97994.13
2023-05-12T02:57:03.198Z,97996.09
2023-05-12T02:59:29.456Z,97996.27
2023-05-12T03:01:55.888Z,97996.76
2023-05-12T03:04:22.468Z,97997.27
2023-05-12T03:06:48.799Z,97992.56
2023-05-12T03:09:15.179Z,97996.70
2023-05-12T03:11:41.390Z,97992.96
2023-05-12T03:14:07.744Z,97992.77
2023-05-12T03:16:34.242Z,97991.59
2023-05-12T03:19:00.794Z,97989.09
2023-05-12T03:21:27.169Z,97991.87
2023-05-12T03:23:53.453Z,97991.04
2023-05-12T03:26:19.750Z,97990.04
2023-05-12T03:28:46.055Z,97994.61
2023-05-12T03:31:12.350Z,97996.87
2023-05-12T03:33:38.618Z,97998.16
2023-05-12T03:36:05.110Z,97999.04
2023-05-12T03:38:31.371Z,97999.20
2023-05-12T03:41:07.559Z,97997.27
2023-05-12T03:43:34.366Z,97995.06
2023-05-12T03:46:00.689Z,97991.13
2023-05-12T03:48:27.190Z,97992.11
2023-05-12T03:50:53.538Z,97993.59
2023-05-12T03:53:21.141Z,97995.63
2023-05-12T03:55:47.541Z,97994.02
2023-05-12T03:58:13.940Z,97992.67
2023-05-12T04:00:40.863Z,97994.82
2023-05-12T04:03:07.244Z,97998.17
2023-05-12T04:05:33.602Z,97999.95
2023-05-12T04:07:59.882Z,97997.14
2023-05-12T04:10:26.179Z,97999.36
2023-05-12T04:12:52.473Z,97999.10
2023-05-12T04:15:19.413Z,98002.41
2023-05-12T04:17:46.009Z,97998.96
2023-05-12T04:20:12.444Z,97998.33
2023-05-12T04:22:38.969Z,97998.27
2023-05-12T04:25:05.388Z,98003.45
2023-05-12T04:27:31.956Z,98005.23
2023-05-12T04:29:58.822Z,98007.62
2023-05-12T04:32:25.265Z,98006.86
2023-05-12T04:34:51.654Z,98007.98
2023-05-12T04:37:17.900Z,98007.05
2023-05-12T04:39:44.929Z,98007.19
2023-05-12T04:42:11.355Z,98005.89
2023-05-12T04:44:37.680Z,98008.82
2023-05-12T04:47:06.032Z,98007.71
2023-05-12T04:49:32.561Z,98002.32
2023-05-12T04:51:58.807Z,98007.92
2023-05-12T04:54:25.122Z,98008.96
2023-05-12T04:56:52.442Z,98010.40
2023-05-12T04:59:18.793Z,98012.88
2023-05-12T05:01:49.660Z,98015.34
2023-05-12T05:04:16.034Z,98015.83
2023-05-12T05:06:42.781Z,98021.80
2023-05-12T05:09:09.106Z,98020.29
2023-05-12T05:11:35.637Z,98024.25
2023-05-12T05:14:01.953Z,98025.61
2023-05-12T05:16:28.718Z,98023.76
2023-05-12T05:18:55.396Z,98024.21
2023-05-12T05:21:23.508Z,98022.73
2023-05-12T05:23:49.731Z,98023.05
2023-05-12T05:26:16.139Z,98023.34
2023-05-12T05:28:42.701Z,98026.90
2023-05-12T05:31:14.299Z,98027.49
2023-05-12T05:33:40.699Z,98023.63
2023-05-12T05:36:07.370Z,98027.52
2023-05-12T05:38:33.845Z,98029.71
2023-05-12T05:41:00.136Z,98028.31
2023-05-12T05:43:27.158Z,98030.80
2023-05-12T05:45:53.868Z,98034.61
2023-05-12T05:48:21.179Z,98036.59
2023-05-12T05:50:47.815Z,98039.32
2023-05-12T05:53:14.432Z,98036.88
2023-05-12T05:55:41.065Z,98036.77
2023-05-12T05:58:07.464Z,98041.93
2023-05-12T06:00:33.801Z,98042.95
2023-05-12T06:03:00.276Z,98050.61
2023-05-12T06:05:26.669Z,98045.33
2023-05-12T06:07:53.075Z,98047.59
2023-05-12T06:10:19.735Z,98044.40
2023-05-12T06:12:46.450Z,98047.36
2023-05-12T06:15:12.817Z,98043.83
2023-05-12T06:17:39.230Z,98046.75
2023-05-12T06:20:05.919Z,98046.31
2023-05-12T06:22:34.690Z,98047.49
2023-05-12T06:25:01.865Z,98047.66
2023-05-12T06:27:55.069Z,98048.02
2023-05-12T06:30:22.534Z,98046.20
2023-05-12T06:32:52.322Z,98045.85
2023-05-12T06:35:19.213Z,98046.86
2023-05-12T06:37:47.263Z,98046.73
2023-05-12T06:40:14.836Z,98049.52
2023-05-12T06:42:44.202Z,98049.28
2023-05-12T06:45:20.965Z,98050.70
2023-05-12T06:47:52.858Z,98051.84
2023-05-12T06:50:19.357Z,98053.55
2023-05-12T06:52:49.526Z,98049.83
2023-05-12T06:55:17.763Z,98055.61
2023-05-12T06:57:44.462Z,98049.21
2023-05-12T07:00:11.114Z,98053.55
2023-05-12T07:02:37.462Z,98053.56
2023-05-12T07:05:04.430Z,98059.16
2023-05-12T07:07:30.984Z,98057.11
2023-05-12T07:09:57.446Z,98056.23
2023-05-12T07:12:23.914Z,98053.61
2023-05-12T07:14:50.378Z,98052.88
2023-05-12T07:17:16.745Z,98050.77
2023-05-12T07:19:43.280Z,98050.48
2023-05-12T07:22:09.707Z,98051.98
2023-05-12T07:24:36.544Z,98051.87
2023-05-12T07:27:06.443Z,98051.95
2023-05-12T07:29:33.176Z,98053.20
2023-05-12T07:32:00.431Z,98052.02
2023-05-12T07:34:31.612Z,98055.84
2023-05-12T07:37:03.931Z,98057.07
2023-05-12T07:39:34.604Z,98056.29
2023-05-12T07:42:07.570Z,98056.02
2023-05-12T07:44:40.546Z,98055.11
2023-05-12T07:47:10.542Z,98052.82
2023-05-12T07:49:42.829Z,98052.88
2023-05-12T07:52:10.672Z,98054.31
2023-05-12T07:54:54.736Z,98055.45
2023-05-12T07:57:27.130Z,98056.90
2023-05-12T07:59:59.542Z,98058.23
2023-05-12T08:02:45.545Z,98062.28
2023-05-12T08:05:25.673Z,98062.40
2023-05-12T08:08:00.483Z,98061.02
2023-05-12T08:10:37.596Z,98061.36
2023-05-12T08:13:14.113Z,98060.42
2023-05-12T08:15:40.778Z,98064.60
2023-05-12T08:18:09.376Z,98066.10
2023-05-12T08:20:35.786Z,98063.17
2023-05-12T08:23:02.277Z,98066.94
2023-05-12T08:25:28.681Z,98067.56
2023-05-12T08:31:10.345Z,98071.23
2023-05-12T08:33:49.756Z,98070.66
2023-05-12T08:36:24.639Z,98070.23
2023-05-12T08:38:51.918Z,98066.55
2023-05-12T08:41:19.615Z,98066.81
2023-05-12T08:43:49.818Z,98062.99
2023-05-12T08:46:16.549Z,98065.09
2023-05-12T08:48:44.549Z,98065.58
2023-05-12T08:51:12.442Z,98064.86
2023-05-12T08:53:40.044Z,98068.16
2023-05-12T08:58:41.764Z,98066.80
2023-05-12T09:01:10.382Z,98066.41
2023-05-12T09:03:36.833Z,98072.94
2023-05-12T09:06:16.082Z,98080.23
2023-05-12T09:08:43.201Z,98074.95
2023-05-12T09:11:10.917Z,98073.40
2023-05-12T09:13:54.460Z,98074.20
2023-05-12T09:16:25.138Z,98074.35
2023-05-12T09:18:55.964Z,98070.31
2023-05-12T09:21:23.343Z,98072.34
2023-05-12T09:23:53.816Z,98074.48
2023-05-12T09:26:20.942Z,98076.77
2023-05-12T09:28:47.703Z,98070.89
2023-05-12T09:31:15.204Z,98070.64
2023-05-12T09:33:44.266Z,98075.51
2023-05-12T09:36:11.135Z,98079.10
2023-05-12T09:38:37.529Z,98074.82
2023-05-12T09:41:03.850Z,98072.65
2023-05-12T09:43:30.219Z,98074.58
2023-05-12T09:45:56.540Z,98074.17
2023-05-12T09:52:19.205Z,98072.09
2023-05-12T09:54:47.193Z,98068.38
2023-05-12T09:57:16.813Z,98072.52
2023-05-12T09:59:45.747Z,98073.33
2023-05-12T10:02:12.764Z,98074.06
2023-05-12T10:04:44.609Z,98072.42
2023-05-12T10:07:12.370Z,98069.86
2023-05-12T10:09:40.163Z,98068.19
2023-05-12T10:12:07.336Z,98065.36
2023-05-12T10:14:34.648Z,98070.85
2023-05-12T10:17:01.271Z,98068.23
2023-05-12T10:19:30.056Z,98067.79
2023-05-12T10:21:56.999Z,98071.27
2023-05-12T10:24:26.537Z,98068.04
2023-05-12T10:26:55.899Z,98072.42
2023-05-12T10:29:25.615Z,98075.98
2023-05-12T10:31:51.941Z,98074.48
2023-05-12T10:34:18.299Z,98066.77
2023-05-12T10:36:48.385Z,98068.45
2023-05-12T10:39:14.862Z,98069.11
2023-05-12T10:41:41.679Z,98066.52
2023-05-12T10:44:08.236Z,98065.40
2023-05-12T10:46:34.865Z,98070.05
2023-05-12T10:49:02.706Z,98065.40
2023-05-12T10:51:33.298Z,98064.90
2023-05-12T10:54:01.349Z,98064.63
2023-05-12T10:56:29.366Z,98062.17
2023-05-12T10:59:20.699Z,98065.50
2023-05-12T11:02:01.152Z,98061.29
2023-05-12T11:04:50.232Z,98063.41
2023-05-12T11:07:24.438Z,98067.08
2023-05-12T11:10:18.090Z,98064.73
2023-05-12T11:12:44.714Z,98068.95
2023-05-12T11:15:36.274Z,98065.66
2023-05-12T11:18:02.924Z,98070.29
2023-05-12T11:20:30.926Z,98071.09
2023-05-12T11:22:57.924Z,98065.23
2023-05-12T11:25:25.544Z,98062.98
2023-05-12T11:27:52.033Z,98066.32
2023-05-12T11:30:18.384Z,98066.99
2023-05-12T11:32:44.777Z,98062.79
2023-05-12T11:35:15.004Z,98065.80
2023-05-12T11:37:42.072Z,98070.34
2023-05-12T11:40:14.666Z,98074.58
2023-05-12T11:42:41.437Z,98075.40
2023-05-12T11:45:18.336Z,98074.63
2023-05-12T11:47:45.371Z,98071.30
2023-05-12T11:50:11.813Z,98067.34
2023-05-12T11:52:38.706Z,98072.23
2023-05-12T11:55:06.784Z,98079.33
2023-05-12T11:57:34.059Z,98080.35
2023-05-12T12:00:02.204Z,98079.77
2023-05-12T12:02:32.667Z,98080.54
2023-05-12T12:04:59.541Z,98080.35
2023-05-12T12:07:30.215Z,98081.65
2023-05-12T12:09:56.666Z,98077.67
2023-05-12T12:12:23.030Z,98074.43
2023-05-12T12:14:52.077Z,98068.98
2023-05-12T12:20:30.338Z,98078.02
2023-05-12T12:23:01.264Z,98075.77
2023-05-12T12:25:34.947Z,98074.66
2023-05-12T12:28:03.521Z,98077.02
2023-05-12T12:30:30.328Z,98076.21
2023-05-12T12:32:58.369Z,98073.61
2023-05-12T12:35:29.207Z,98072.55
2023-05-12T12:37:56.190Z,98077.33
2023-05-12T12:40:27.783Z,98074.27
2023-05-12T12:42:54.429Z,98069.06
2023-05-12T12:45:26.836Z,98071.25
2023-05-12T12:47:56.671Z,98073.22
2023-05-12T12:50:27.305Z,98075.95
2023-05-12T12:52:53.901Z,98071.37
2023-05-12T12:55:20.724Z,98074.30
2023-05-12T12:57:48.588Z,98065.58
2023-05-12T13:00:15.250Z,98068.77
2023-05-12T13:02:46.361Z,98073.06
2023-05-12T13:05:23.082Z,98071.69
2023-05-12T13:07:50.232Z,98073.70
2023-05-12T13:10:17.182Z,98071.36
2023-05-12T13:12:46.066Z,98076.25
2023-05-12T13:15:12.472Z,98075.26
2023-05-12T13:17:38.904Z,98074.49
2023-05-12T13:20:05.966Z,98069.27
2023-05-12T13:22:32.431Z,98075.86
2023-05-12T13:25:00.054Z,98072.99
2023-05-12T13:27:31.169Z,98073.90
2023-05-12T13:30:00.355Z,98067.36
2023-05-12T13:32:29.515Z,98062.41
2023-05-12T13:34:57.125Z,98063.29
2023-05-12T13:37:23.561Z,98054.73
2023-05-12T13:39:49.917Z,98058.38
2023-05-12T13:42:16.306Z,98057.84
2023-05-12T13:44:42.974Z,98058.83
2023-05-12T13:47:09.341Z,98056.98
2023-05-12T13:49:36.166Z,98056.88
2023-05-12T13:52:03.205Z,98056.41
2023-05-12T13:58:10.690Z,98056.31
2023-05-12T14:00:49.278Z,98057.33
2023-05-12T14:03:46.019Z,98061.46
2023-05-12T14:06:13.486Z,98056.67
2023-05-12T14:09:07.104Z,98057.06
2023-05-12T14:11:43.719Z,98050.89
2023-05-12T14:14:11.436Z,98051.05
2023-05-12T14:16:44.895Z,98048.94
2023-05-12T14:19:16.251Z,98046.98
2023-05-12T14:21:53.222Z,98056.07
2023-05-12T14:24:19.542Z,98054.50
2023-05-12T14:26:45.871Z,98053.69
2023-05-12T14:29:12.286Z,98055.27
2023-05-12T14:31:38.916Z,98060.73
2023-05-12T14:34:05.287Z,98060.97
2023-05-12T14:36:32.135Z,98057.82
2023-05-12T14:38:58.458Z,98055.89
2023-05-12T14:41:24.723Z,98058.66
2023-05-12T14:43:51.014Z,98054.65
2023-05-12T14:46:17.540Z,98049.52
2023-05-12T14:48:43.987Z,98055.48
2023-05-12T14:51:10.567Z,98054.77
2023-05-12T14:53:36.827Z,98062.59
2023-05-12T14:56:03.202Z,98057.88
2023-05-12T14:58:29.755Z,98058.22
2023-05-12T15:00:56.188Z,98056.02
2023-05-12T15:03:22.682Z,98056.00
2023-05-12T15:06:04.699Z,98057.20
2023-05-12T15:08:33.398Z,98058.87
2023-05-12T15:10:59.791Z,98059.02
2023-05-12T15:13:26.101Z,98060.15
2023-05-12T15:15:55.063Z,98061.87
2023-05-12T15:18:25.135Z,98061.56
2023-05-12T15:20:51.789Z,98056.41
2023-05-12T15:23:18.107Z,98056.27
2023-05-12T15:25:46.540Z,98054.64
2023-05-12T15:28:12.980Z,98055.58
2023-05-12T15:30:52.989Z,98054.23
2023-05-12T15:33:19.653Z,98061.16
2023-05-12T15:35:48.448Z,98060.50
2023-05-12T15:38:14.863Z,98062.79
2023-05-12T15:40:41.399Z,98061.75
2023-05-12T15:43:08.029Z,98063.20
2023-05-12T15:45:34.379Z,98062.05
2023-05-12T15:48:00.771Z,98063.03
2023-05-12T15:50:27.450Z,98065.17
2023-05-12T15:52:53.764Z,98065.70
2023-05-12T15:55:22.742Z,98067.42
2023-05-12T15:57:51.039Z,98073.53
2023-05-12T16:00:17.526Z,98072.96
2023-05-12T16:02:44.212Z,98068.61
2023-05-12T16:05:11.009Z,98073.52
2023-05-12T16:07:39.851Z,98069.35
2023-05-12T16:10:06.932Z,98071.41
2023-05-12T16:12:36.159Z,98073.38
2023-05-12T16:15:02.460Z,98074.19
2023-05-12T16:17:29.996Z,98070.27
2023-05-12T16:19:56.501Z,98070.11
2023-05-12T16:22:23.266Z,98073.21
2023-05-12T16:24:50.672Z,98076.20
2023-05-12T16:27:18.839Z,98078.36
2023-05-12T16:29:45.313Z,98079.38
2023-05-12T16:32:11.683Z,98078.30
2023-05-12T16:34:38.125Z,98077.46
2023-05-12T16:37:05.039Z,98082.01
2023-05-12T16:39:34.065Z,98079.02
2023-05-12T16:42:00.474Z,98083.20
2023-05-12T16:44:27.584Z,98088.13
2023-05-12T16:46:55.858Z,98091.16
2023-05-12T16:49:25.131Z,98094.66
2023-05-12T16:51:51.629Z,98090.41
2023-05-12T16:54:18.237Z,98094.48
2023-05-12T16:56:44.628Z,98094.05
2023-05-12T16:59:10.952Z,98097.70
2023-05-12T17:01:37.437Z,98096.18
2023-05-12T17:04:03.935Z,98094.30
2023-05-12T17:06:30.599Z,98097.91
2023-05-12T17:08:56.927Z,98099.21
2023-05-12T17:11:24.482Z,98101.52
2023-05-12T17:13:50.746Z,98100.95
2023-05-12T17:16:17.210Z,98106.52
2023-05-12T17:21:12.982Z,98109.58
2023-05-12T17:23:39.412Z,98108.52
2023-05-12T17:26:05.730Z,98112.88
2023-05-12T17:28:32.143Z,98113.73
2023-05-12T17:30:58.531Z,98116.52
2023-05-12T17:33:24.904Z,98119.09
2023-05-12T17:36:03.757Z,98120.74
2023-05-12T17:38:44.143Z,98121.99
2023-05-12T17:41:10.638Z,98126.41
2023-05-12T17:43:36.995Z,98127.89
2023-05-12T17:46:03.384Z,98132.08
2023-05-12T17:48:29.717Z,98132.74
2023-05-12T17:50:56.028Z,98135.35
2023-05-12T17:53:22.406Z,98136.17
2023-05-12T17:56:22.670Z,98138.83
2023-05-12T17:58:51.132Z,98137.68
2023-05-12T18:01:17.554Z,98138.40
2023-05-12T18:03:49.418Z,98140.54
2023-05-12T18:06:15.850Z,98139.49
2023-05-12T18:08:42.309Z,98138.11
2023-05-12T18:11:09.543Z,98138.04
2023-05-12T18:13:36.017Z,98143.98
2023-05-12T18:16:02.370Z,98145.67
2023-05-12T18:18:28.855Z,98144.41
2023-05-12T18:20:55.236Z,98147.63
2023-05-12T18:23:30.208Z,98151.88
2023-05-12T18:25:56.666Z,98148.93
2023-05-12T18:28:24.023Z,98150.25
2023-05-12T18:30:50.420Z,98152.48
2023-05-12T18:33:16.937Z,98159.34
2023-05-12T18:35:43.379Z,98162.20
2023-05-12T18:38:09.737Z,98164.27
2023-05-12T18:40:37.267Z,98167.68
2023-05-12T18:43:03.651Z,98170.31
2023-05-12T18:45:30.075Z,98168.41
2023-05-12T18:47:56.736Z,98172.96
2023-05-12T18:50:24.476Z,98176.46
2023-05-12T18:52:50.868Z,98178.20
2023-05-12T18:55:17.333Z,98180.38
2023-05-12T18:57:43.717Z,98182.58
2023-05-12T19:00:10.291Z,98182.33
2023-05-12T19:02:36.736Z,98184.17
2023-05-12T19:05:03.398Z,98186.16
2023-05-12T19:07:29.784Z,98185.52
2023-05-12T19:09:56.269Z,98188.77
2023-05-12T19:12:22.621Z,98190.34
2023-05-12T19:14:48.950Z,98188.66
2023-05-12T19:17:15.343Z,98189.79
2023-05-12T19:19:41.752Z,98189.59
2023-05-12T19:22:19.207Z,98186.96
2023-05-12T19:24:45.644Z,98187.11
2023-05-12T19:27:11.950Z,98187.05
2023-05-12T19:29:38.301Z,98192.58
2023-05-12T19:32:04.926Z,98193.58
2023-05-12T19:34:31.555Z,98191.70
2023-05-12T19:36:59.631Z,98196.82
2023-05-12T19:39:28.695Z,98196.39
2023-05-12T19:41:55.229Z,98196.40
2023-05-12T19:44:21.596Z,98198.61
2023-05-12T19:46:48.017Z,98203.79
2023-05-12T19:49:14.496Z,98203.06
2023-05-12T19:51:43.943Z,98207.35
2023-05-12T19:54:10.288Z,98207.40
2023-05-12T19:56:36.582Z,98206.41
2023-05-12T19:59:02.976Z,98210.50
2023-05-12T20:01:29.540Z,98207.23
2023-05-12T20:03:56.143Z,98208.27
2023-05-12T20:06:23.483Z,98208.13
2023-05-12T20:08:50.255Z,98208.23
2023-05-12T20:11:16.852Z,98209.26
2023-05-12T20:13:43.146Z,98203.05
2023-05-12T20:16:09.581Z,98203.75
2023-05-12T20:18:35.887Z,98203.05
2023-05-12T20:21:02.269Z,98204.27
2023-05-12T20:23:28.624Z,98200.02
2023-05-12T20:25:54.983Z,98203.11
2023-05-12T20:28:21.444Z,98203.29
2023-05-12T20:30:47.729Z,98200.59
2023-05-12T20:33:14.173Z,98204.94
2023-05-12T20:35:40.560Z,98199.77
2023-05-12T20:38:06.920Z,98198.73
2023-05-12T20:40:33.254Z,98196.96
2023-05-12T20:42:59.527Z,98195.05
2023-05-12T20:45:25.862Z,98190.70
2023-05-12T20:47:52.213Z,98194.00
2023-05-12T20:50:18.651Z,98198.55
2023-05-12T20:52:45.124Z,98196.15
2023-05-12T20:55:11.484Z,98198.52
2023-05-12T20:57:38.028Z,98197.48
2023-05-12T21:00:04.830Z,98196.88
2023-05-12T21:02:31.332Z,98196.75
2023-05-12T21:04:57.871Z,98193.64
2023-05-12T21:07:24.309Z,98198.20
2023-05-12T21:09:50.646Z,98199.16
2023-05-12T21:12:17.017Z,98197.05
2023-05-12T21:14:43.914Z,98201.39
2023-05-12T21:17:10.650Z,98203.80
2023-05-12T21:19:37.900Z,98204.38
2023-05-12T21:22:04.747Z,98204.13
2023-05-12T21:24:31.163Z,98201.90
2023-05-12T21:26:58.472Z,98204.13
2023-05-12T21:29:24.806Z,98202.11
2023-05-12T21:31:51.209Z,98199.30
2023-05-12T21:34:17.510Z,98198.75
2023-05-12T21:36:43.931Z,98199.90
2023-05-12T21:39:10.259Z,98198.93
2023-05-12T21:41:36.615Z,98196.91
2023-05-12T21:44:03.182Z,98199.73
2023-05-12T21:46:29.426Z,98197.94
2023-05-12T21:48:59.817Z,98200.92
2023-05-12T21:51:26.558Z,98196.94
2023-05-12T21:53:55.734Z,98198.80
2023-05-12T21:56:22.388Z,98197.09
2023-05-12T21:58:49.662Z,98198.30
2023-05-12T22:01:16.560Z,98197.76
2023-05-12T22:03:43.177Z,98197.14
2023-05-12T22:06:16.741Z,98195.63
2023-05-12T22:08:45.028Z,98195.34
2023-05-12T22:11:11.362Z,98197.31
2023-05-12T22:13:37.664Z,98195.98
2023-05-12T22:16:04.236Z,98196.17
2023-05-12T22:18:30.733Z,98200.50
2023-05-12T22:20:57.086Z,98203.48
2023-05-12T22:23:23.487Z,98203.66
2023-05-12T22:25:49.915Z,98206.77
2023-05-12T22:28:16.247Z,98206.27
2023-05-12T22:30:42.776Z,98207.94
2023-05-12T22:33:09.184Z,98208.31
2023-05-12T22:35:35.501Z,98209.17
2023-05-12T22:38:01.801Z,98204.26
2023-05-12T22:40:28.177Z,98206.29
2023-05-12T22:42:54.490Z,98200.70
2023-05-12T22:45:20.747Z,98205.04
2023-05-12T22:47:47.106Z,98205.18
2023-05-12T22:50:13.553Z,98204.62
2023-05-12T22:52:39.923Z,98207.27
2023-05-12T22:55:06.376Z,98204.63
2023-05-12T22:57:32.731Z,98206.30
2023-05-12T22:59:59.030Z,98206.92
2023-05-12T23:02:25.324Z,98205.47
2023-05-12T23:04:51.763Z,98207.13
2023-05-12T23:07:18.099Z,98207.95
2023-05-12T23:09:44.405Z,98206.75
2023-05-12T23:12:10.696Z,98204.55
2023-05-12T23:14:37.000Z,98203.52
2023-05-12T23:17:03.379Z,98207.02
2023-05-12T23:19:29.773Z,98204.84
2023-05-12T23:21:56.335Z,98211.16
2023-05-12T23:24:22.637Z,98211.48
2023-05-12T23:26:48.929Z,98210.39
2023-05-12T23:29:15.367Z,98211.44
2023-05-12T23:31:41.716Z,98216.21
2023-05-12T23:34:07.987Z,98215.52
2023-05-12T23:36:34.270Z,98219.16
2023-05-12T23:39:00.686Z,98216.44
2023-05-12T23:41:27.054Z,98215.44
2023-05-12T23:43:53.381Z,98209.84
2023-05-12T23:46:19.653Z,98208.42
2023-05-12T23:48:45.914Z,98210.71
2023-05-12T23:51:12.173Z,98207.70
2023-05-12T23:53:38.448Z,98208.10
2023-05-12T23:56:04.903Z,98204.96
2023-05-12T23:58:31.181Z,98207.14
